TimeEDT,TemperatureF,Dew PointF,Humidity,Sea Level PressureIn,VisibilityMPH,Wind Direction,Wind SpeedMPH,Gust SpeedMPH,PrecipitationIn,Events,Conditions,WindDirDegrees,DateUTC
12:54 AM,73.0,69.1,87,29.82,8.0,SW,10.4,-,N/A,,Overcast,220,2013-09-01 04:54:00
1:47 AM,73.4,69.8,88,29.81,8.0,SSW,10.4,-,N/A,,Overcast,210,2013-09-01 05:47:00
1:54 AM,73.0,69.1,87,29.81,8.0,SW,12.7,-,N/A,,Overcast,220,2013-09-01 05:54:00
2:29 AM,73.4,69.8,88,29.80,8.0,SW,15.0,-,N/A,,Mostly Cloudy,220,2013-09-01 06:29:00
2:54 AM,73.4,69.8,88,29.79,8.0,SW,15.0,-,N/A,,Mostly Cloudy,220,2013-09-01 06:54:00
3:54 AM,73.4,69.8,88,29.81,8.0,WSW,11.5,-,N/A,,Mostly Cloudy,250,2013-09-01 07:54:00
4:54 AM,73.0,69.1,87,29.80,8.0,SW,8.1,-,N/A,,Mostly Cloudy,230,2013-09-01 08:54:00
5:54 AM,73.0,66.0,79,29.83,8.0,WSW,8.1,-,N/A,,Mostly Cloudy,240,2013-09-01 09:54:00
6:54 AM,73.0,66.9,81,29.85,10.0,SW,9.2,-,0.00,,Overcast,230,2013-09-01 10:54:00
7:54 AM,72.0,66.9,84,29.86,10.0,SW,11.5,-,0.00,,Overcast,230,2013-09-01 11:54:00
8:54 AM,73.0,69.1,87,29.86,10.0,SSW,10.4,-,N/A,,Overcast,210,2013-09-01 12:54:00
9:42 AM,71.6,69.8,94,29.88,1.8,SW,13.8,-,0.08,Rain-Thunderstorm,Heavy Thunderstorms and Rain,220,2013-09-01 13:42:00
9:47 AM,71.6,68.0,88,29.88,2.0,SSW,13.8,-,0.12,Rain-Thunderstorm,Heavy Thunderstorms and Rain,210,2013-09-01 13:47:00
9:54 AM,71.1,66.9,87,29.87,3.0,SSW,12.7,-,N/A,Rain-Thunderstorm,Heavy Thunderstorms and Rain,210,2013-09-01 13:54:00
10:05 AM,69.8,66.2,88,29.87,2.0,SSW,11.5,-,0.10,Rain-Thunderstorm,Heavy Thunderstorms and Rain,210,2013-09-01 14:05:00
10:15 AM,69.8,68.0,94,29.87,9.0,South,5.8,-,0.12,Rain-Thunderstorm,Light Thunderstorms and Rain,190,2013-09-01 14:15:00
10:35 AM,71.6,68.0,88,29.88,10.0,WSW,11.5,18.4,0.13,,Overcast,250,2013-09-01 14:35:00
10:54 AM,71.1,66.9,87,29.87,9.0,WSW,20.7,27.6,0.13,Rain,Light Rain,240,2013-09-01 14:54:00
11:07 AM,71.6,66.2,83,29.87,2.5,WSW,6.9,-,0.07,Rain,Light Rain,250,2013-09-01 15:07:00
11:11 AM,71.6,66.2,83,29.87,5.0,WSW,6.9,-,0.08,Rain,Light Rain,240,2013-09-01 15:11:00
11:54 AM,73.0,68.0,84,29.86,10.0,SSW,9.2,-,0.09,Rain,Light Rain,210,2013-09-01 15:54:00
12:54 PM,73.0,69.1,87,29.87,10.0,SW,4.6,-,0.01,,Overcast,230,2013-09-01 16:54:00
1:11 PM,73.4,69.8,88,29.86,10.0,SW,6.9,-,0.00,Rain,Light Rain,220,2013-09-01 17:11:00
1:54 PM,73.9,71.1,91,29.86,9.0,South,6.9,-,0.00,,Overcast,190,2013-09-01 17:54:00
2:22 PM,75.2,71.6,89,29.86,10.0,South,3.5,-,N/A,,Overcast,170,2013-09-01 18:22:00
2:31 PM,75.2,71.6,89,29.86,9.0,Calm,Calm,-,N/A,,Overcast,0,2013-09-01 18:31:00
2:45 PM,75.2,71.6,89,29.86,10.0,South,3.5,-,N/A,,Overcast,180,2013-09-01 18:45:00
2:54 PM,75.9,72.0,87,29.85,10.0,SW,4.6,-,N/A,,Overcast,220,2013-09-01 18:54:00
3:18 PM,77.0,73.4,89,29.85,8.0,Calm,Calm,-,N/A,,Overcast,0,2013-09-01 19:18:00
3:54 PM,75.9,72.0,87,29.85,9.0,ESE,5.8,-,N/A,,Overcast,120,2013-09-01 19:54:00
4:05 PM,75.2,71.6,89,29.84,10.0,ENE,8.1,-,N/A,,Mostly Cloudy,70,2013-09-01 20:05:00
4:54 PM,73.9,69.1,85,29.85,10.0,East,5.8,-,N/A,,Overcast,100,2013-09-01 20:54:00
5:35 PM,73.4,69.8,88,29.85,9.0,East,4.6,-,N/A,,Mostly Cloudy,100,2013-09-01 21:35:00
5:54 PM,73.0,69.1,87,29.85,9.0,SE,5.8,-,N/A,,Mostly Cloudy,130,2013-09-01 21:54:00
6:54 PM,72.0,68.0,87,29.85,8.0,South,6.9,-,N/A,,Overcast,170,2013-09-01 22:54:00
7:54 PM,73.0,70.0,90,29.86,10.0,South,6.9,-,N/A,,Mostly Cloudy,190,2013-09-01 23:54:00
8:54 PM,73.0,70.0,90,29.87,10.0,South,4.6,-,N/A,,Scattered Clouds,170,2013-09-02 00:54:00
9:54 PM,71.6,69.8,94,29.88,9.0,South,6.9,-,N/A,,Mostly Cloudy,180,2013-09-02 01:54:00
10:02 PM,71.6,69.8,94,29.87,8.0,South,5.8,-,N/A,,Scattered Clouds,190,2013-09-02 02:02:00
10:54 PM,72.0,70.0,93,29.88,9.0,South,6.9,-,N/A,,Mostly Cloudy,190,2013-09-02 02:54:00
11:13 PM,73.4,69.8,88,29.88,8.0,South,9.2,-,N/A,,Overcast,190,2013-09-02 03:13:00
11:26 PM,73.4,69.8,88,29.88,8.0,SSW,9.2,-,N/A,,Overcast,200,2013-09-02 03:26:00
11:44 PM,73.4,69.8,88,29.88,8.0,South,5.8,-,N/A,,Overcast,190,2013-09-02 03:44:00
11:54 PM,73.0,70.0,90,29.88,9.0,SSW,5.8,-,N/A,,Overcast,200,2013-09-02 03:54:00